Time;durP1;ratioP1;P1;durP2;ratioP2;P2;SDS_P1;SDS_P2;PMS_P1;PMS_P2;Temp;Humidity;BMP_temperature;BMP_pressure;BME280_temperature;BME280_humidity;BME280_pressure;Samples;Min_cycle;Max_cycle;Signal;HPM_P1;HPM_P2
2022/07/30 00:01:25;;;;;;;10.10;7.57;;;17.40;99.90;;;;;;5000283;28;20038;-68
2022/07/30 00:03:51;;;;;;;11.63;8.07;;;17.80;99.90;;;;;;5001326;28;20030;-68
2022/07/30 00:06:17;;;;;;;12.90;8.18;;;17.40;99.90;;;;;;5002427;28;20025;-68
2022/07/30 00:08:42;;;;;;;9.98;7.85;;;17.30;99.90;;;;;;4989124;28;20030;-68
2022/07/30 00:11:10;;;;;;;11.10;7.60;;;17.50;99.90;;;;;;5002725;28;20065;-68
2022/07/30 00:13:35;;;;;;;14.38;7.95;;;17.30;99.90;;;;;;5005440;28;20019;-68
2022/07/30 00:16:01;;;;;;;11.85;7.88;;;18.50;99.90;;;;;;4988487;28;20644;-68
2022/07/30 00:18:26;;;;;;;11.02;7.90;;;17.30;99.90;;;;;;5003152;28;20026;-68
2022/07/30 00:20:52;;;;;;;13.32;8.70;;;17.40;99.90;;;;;;4996013;28;20427;-68
2022/07/30 00:23:17;;;;;;;12.68;8.18;;;17.40;99.90;;;;;;4995126;28;20060;-68
2022/07/30 00:25:43;;;;;;;10.32;7.40;;;17.30;99.90;;;;;;4998395;28;20097;-68
2022/07/30 00:28:08;;;;;;;11.30;7.35;;;17.30;99.90;;;;;;4999413;28;20051;-68
2022/07/30 00:30:34;;;;;;;9.60;7.72;;;17.30;99.90;;;;;;5004129;28;20034;-68
2022/07/30 00:33:00;;;;;;;11.05;8.25;;;17.30;99.90;;;;;;4997232;28;20026;-68
2022/07/30 00:35:25;;;;;;;8.90;8.00;;;17.20;99.90;;;;;;5006044;28;20450;-68
2022/07/30 00:37:51;;;;;;;14.38;8.52;;;17.30;99.90;;;;;;4999731;28;20464;-68
2022/07/30 00:40:16;;;;;;;13.98;8.38;;;17.30;99.90;;;;;;5003701;28;20396;-68
2022/07/30 00:42:46;;;;;;;10.77;9.30;;;17.30;99.90;;;;;;5007917;28;20329;-68
2022/07/30 00:45:13;;;;;;;16.23;8.68;;;15.60;99.90;;;;;;5004468;28;20064;-69
2022/07/30 00:47:39;;;;;;;11.00;8.32;;;17.90;99.90;;;;;;5006348;28;20517;-68
2022/07/30 00:50:07;;;;;;;15.45;9.90;;;17.20;99.90;;;;;;4999096;28;20054;-68
2022/07/30 00:52:34;;;;;;;11.57;9.27;;;17.20;99.90;;;;;;5005311;28;20426;-68
2022/07/30 00:55:00;;;;;;;15.75;9.98;;;17.20;99.90;;;;;;4995343;28;20353;-68
2022/07/30 00:57:26;;;;;;;14.70;8.25;;;17.20;99.90;;;;;;4999809;28;20081;-68
2022/07/30 00:59:52;;;;;;;14.93;9.75;;;17.10;99.90;;;;;;4996373;28;20088;-68
2022/07/30 01:02:18;;;;;;;11.10;8.27;;;17.20;99.90;;;;;;5009261;28;20084;-68
2022/07/30 01:04:43;;;;;;;11.75;8.00;;;17.20;99.90;;;;;;5006387;28;20054;-68
2022/07/30 01:07:10;;;;;;;15.95;9.25;;;17.10;99.90;;;;;;5008271;28;20020;-68
2022/07/30 01:09:36;;;;;;;12.75;7.88;;;17.10;99.90;;;;;;4996160;28;20478;-68
2022/07/30 01:12:03;;;;;;;12.80;7.93;;;17.00;99.90;;;;;;5008410;28;20402;-69
2022/07/30 01:14:28;;;;;;;10.65;6.70;;;17.00;99.90;;;;;;5005834;28;20026;-68
2022/07/30 01:16:54;;;;;;;11.27;9.13;;;17.00;99.90;;;;;;4983423;28;20045;-68
2022/07/30 01:22:29;;;;;;;17.13;8.88;;;17.00;99.90;;;;;;5001676;28;20121;-68
2022/07/30 01:24:57;;;;;;;11.15;8.45;;;17.00;99.90;;;;;;5000174;28;20050;-68
2022/07/30 01:27:23;;;;;;;13.80;8.95;;;17.00;99.90;;;;;;5007441;28;20026;-68
2022/07/30 01:29:51;;;;;;;15.48;8.23;;;17.30;99.90;;;;;;5006073;28;20425;-68
2022/07/30 01:32:20;;;;;;;17.13;9.18;;;16.90;99.90;;;;;;5004428;28;20035;-68
2022/07/30 01:34:46;;;;;;;11.68;8.88;;;16.90;99.90;;;;;;5005438;28;20823;-68
2022/07/30 01:37:14;;;;;;;10.52;8.13;;;16.90;99.90;;;;;;5006434;28;20483;-68
2022/07/30 01:39:40;;;;;;;12.27;10.05;;;16.80;99.90;;;;;;4999946;28;20038;-68
2022/07/30 01:42:08;;;;;;;16.02;9.52;;;16.80;99.90;;;;;;5005193;28;20125;-68
2022/07/30 01:44:34;;;;;;;10.13;8.43;;;16.80;99.90;;;;;;5007019;28;20037;-68
2022/07/30 01:47:01;;;;;;;11.73;8.85;;;17.00;99.90;;;;;;5009586;28;20026;-68
2022/07/30 01:49:29;;;;;;;13.23;10.40;;;16.90;99.90;;;;;;5002255;28;20049;-68
2022/07/30 01:51:57;;;;;;;17.50;10.75;;;16.80;99.90;;;;;;5000463;28;20488;-69
2022/07/30 01:54:25;;;;;;;14.80;10.27;;;16.80;99.90;;;;;;4997967;28;20482;-68
2022/07/30 01:56:54;;;;;;;14.48;9.07;;;16.80;99.90;;;;;;4998182;28;20041;-68
2022/07/30 01:59:23;;;;;;;9.75;8.32;;;16.80;99.90;;;;;;5000067;28;20026;-68
2022/07/30 02:01:49;;;;;;;16.73;10.18;;;17.10;99.90;;;;;;5003503;28;20066;-68
2022/07/30 02:04:15;;;;;;;13.77;11.40;;;16.80;99.90;;;;;;5001356;28;20495;-68
2022/07/30 02:06:47;;;;;;;11.02;9.93;;;16.80;99.90;;;;;;5005614;28;20061;-69
2022/07/30 02:09:21;;;;;;;12.55;9.38;;;16.90;99.90;;;;;;5003827;28;20100;-68
2022/07/30 02:14:42;;;;;;;11.50;10.30;;;17.00;99.90;;;;;;5005107;28;20499;-68
2022/07/30 02:17:12;;;;;;;12.63;11.18;;;17.00;99.90;;;;;;4998688;28;20067;-68
2022/07/30 02:19:42;;;;;;;16.05;11.50;;;17.10;99.90;;;;;;5005465;28;20066;-68
2022/07/30 02:22:13;;;;;;;16.33;11.73;;;17.10;99.90;;;;;;5000282;28;20035;-68
2022/07/30 02:24:41;;;;;;;18.67;11.10;;;17.10;99.90;;;;;;5004227;28;20034;-68
2022/07/30 02:27:16;;;;;;;13.52;11.02;;;17.20;99.90;;;;;;5000560;28;20098;-69
2022/07/30 02:29:43;;;;;;;14.48;10.65;;;17.00;99.90;;;;;;4997240;28;20030;-69
2022/07/30 02:32:13;;;;;;;13.40;10.52;;;17.00;99.90;;;;;;5000325;28;20117;-68
2022/07/30 02:34:41;;;;;;;12.07;10.85;;;17.00;99.90;;;;;;5000110;28;20057;-68
2022/07/30 02:37:10;;;;;;;13.73;11.25;;;16.80;99.90;;;;;;5007628;28;20038;-68
2022/07/30 02:39:36;;;;;;;16.38;11.27;;;16.90;99.90;;;;;;5005458;28;20036;-68
2022/07/30 02:42:03;;;;;;;14.13;10.63;;;16.80;99.90;;;;;;5005431;28;20405;-68
2022/07/30 02:44:30;;;;;;;14.85;11.07;;;16.90;99.90;;;;;;5004558;28;20133;-69
2022/07/30 02:46:57;;;;;;;18.17;12.20;;;16.70;99.90;;;;;;4994433;28;20031;-69
2022/07/30 02:49:23;;;;;;;16.48;11.32;;;16.70;99.90;;;;;;4996759;28;20431;-68
2022/07/30 02:51:50;;;;;;;16.65;10.80;;;16.70;99.90;;;;;;5000679;28;20065;-68
2022/07/30 02:54:19;;;;;;;16.30;11.10;;;16.90;99.90;;;;;;5001189;28;20026;-68
2022/07/30 02:56:48;;;;;;;19.38;11.63;;;16.90;99.90;;;;;;4995717;28;20112;-68
2022/07/30 02:59:16;;;;;;;17.98;11.30;;;17.30;99.90;;;;;;4998207;28;20023;-69
2022/07/30 03:01:43;;;;;;;15.00;13.35;;;16.90;99.90;;;;;;4997744;28;20130;-68
2022/07/30 03:04:09;;;;;;;19.23;11.98;;;16.90;99.90;;;;;;5001425;28;20026;-68
2022/07/30 03:06:35;;;;;;;19.95;14.38;;;;;;;;;;5006342;28;20035;-68
2022/07/30 03:09:03;;;;;;;12.43;11.20;;;16.90;99.90;;;;;;5006440;28;20026;-68
2022/07/30 03:11:29;;;;;;;15.93;12.02;;;16.90;99.90;;;;;;5007202;28;20112;-68
2022/07/30 03:13:55;;;;;;;18.77;16.33;;;;;;;;;;5002012;28;20021;-69
2022/07/30 03:16:23;;;;;;;17.23;13.75;;;16.80;99.90;;;;;;5007011;28;20546;-68
2022/07/30 03:18:51;;;;;;;16.55;14.60;;;16.70;99.90;;;;;;5006441;28;20029;-68
2022/07/30 03:21:21;;;;;;;23.00;15.32;;;16.80;99.90;;;;;;5008125;28;20030;-69
2022/07/30 03:23:49;;;;;;;15.85;14.00;;;16.70;99.90;;;;;;5009333;28;20029;-69
2022/07/30 03:26:16;;;;;;;15.30;13.20;;;16.70;99.90;;;;;;5010603;28;20058;-68
2022/07/30 03:28:42;;;;;;;16.83;13.95;;;16.80;99.90;;;;;;5002447;28;20081;-68
2022/07/30 03:31:10;;;;;;;14.32;12.85;;;16.70;99.90;;;;;;5004935;28;20019;-69
2022/07/30 03:33:36;;;;;;;20.90;13.98;;;18.50;99.90;;;;;;5000553;28;20053;-69
2022/07/30 03:36:03;;;;;;;27.38;15.35;;;16.60;99.90;;;;;;5001978;28;20495;-69
2022/07/30 03:38:29;;;;;;;16.48;13.07;;;16.70;99.90;;;;;;5003917;28;20434;-69
2022/07/30 03:40:55;;;;;;;17.42;15.15;;;16.70;99.90;;;;;;5005678;28;20442;-68
2022/07/30 03:43:21;;;;;;;21.25;13.48;;;16.70;99.90;;;;;;5010641;28;20101;-69
2022/07/30 03:45:48;;;;;;;14.40;12.88;;;16.90;99.90;;;;;;5005818;28;20072;-68
2022/07/30 03:48:14;;;;;;;18.10;14.23;;;16.80;99.90;;;;;;4995145;28;20015;-68
2022/07/30 03:50:41;;;;;;;20.42;15.45;;;16.80;99.90;;;;;;5001805;28;20084;-68
2022/07/30 03:53:08;;;;;;;23.25;14.02;;;16.70;99.90;;;;;;5000053;28;20033;-68
2022/07/30 03:55:34;;;;;;;20.58;13.98;;;16.80;99.90;;;;;;4996251;28;20077;-68
2022/07/30 03:58:00;;;;;;;14.60;12.73;;;16.70;99.90;;;;;;5005966;28;20527;-68
2022/07/30 04:00:27;;;;;;;19.38;14.85;;;16.80;99.90;;;;;;5003684;28;20487;-68
2022/07/30 04:02:53;;;;;;;16.92;12.70;;;16.90;99.90;;;;;;5006852;28;20060;-68
2022/07/30 04:05:19;;;;;;;20.00;13.98;;;16.70;99.90;;;;;;5001243;28;20184;-68
2022/07/30 04:07:45;;;;;;;25.77;15.48;;;16.80;99.90;;;;;;4998633;28;20120;-69
2022/07/30 04:10:11;;;;;;;17.45;13.82;;;16.80;99.90;;;;;;5006564;28;20502;-68
2022/07/30 04:12:37;;;;;;;15.40;12.68;;;16.80;99.90;;;;;;5009398;28;20030;-68
2022/07/30 04:15:02;;;;;;;13.93;11.13;;;16.80;99.90;;;;;;5004197;28;20053;-69
2022/07/30 04:17:35;;;;;;;21.20;13.77;;;16.90;99.90;;;;;;5000520;28;20105;-69
2022/07/30 04:20:35;;;;;;;16.38;14.02;;;17.00;99.90;;;;;;4995879;28;20049;-68
2022/07/30 04:23:02;;;;;;;21.08;14.77;;;16.90;99.90;;;;;;4996179;28;20026;-68
2022/07/30 04:25:29;;;;;;;16.33;11.70;;;16.80;99.90;;;;;;5001166;28;20120;-68
2022/07/30 04:27:54;;;;;;;22.05;13.02;;;16.90;99.90;;;;;;4999091;28;20027;-68
2022/07/30 04:30:21;;;;;;;18.35;12.40;;;16.90;99.90;;;;;;5006580;28;20141;-68
2022/07/30 04:32:46;;;;;;;14.75;11.55;;;16.80;99.90;;;;;;5003626;28;20018;-68
2022/07/30 04:35:12;;;;;;;14.25;12.80;;;16.80;99.90;;;;;;5003854;28;20029;-68
2022/07/30 04:37:37;;;;;;;15.30;11.55;;;16.80;99.90;;;;;;5003102;28;20062;-68
2022/07/30 04:40:03;;;;;;;13.85;11.85;;;16.80;99.90;;;;;;5004120;28;20026;-69
2022/07/30 04:42:29;;;;;;;16.40;12.35;;;17.10;99.90;;;;;;5009121;28;20032;-68
2022/07/30 04:44:56;;;;;;;18.05;11.23;;;16.70;99.90;;;;;;5007200;28;20037;-68
2022/07/30 04:47:22;;;;;;;14.07;11.45;;;16.70;99.90;;;;;;5007589;28;20037;-69
2022/07/30 04:49:49;;;;;;;17.02;11.13;;;16.60;99.90;;;;;;4994117;28;20455;-68
2022/07/30 04:52:17;;;;;;;18.88;11.32;;;16.70;99.90;;;;;;5003461;28;20030;-69
2022/07/30 04:54:58;;;;;;;18.52;13.15;;;16.60;99.90;;;;;;4997675;28;20241;-68
2022/07/30 04:57:24;;;;;;;15.30;11.50;;;16.60;99.90;;;;;;4997506;28;20096;-68
2022/07/30 04:59:50;;;;;;;18.35;12.57;;;16.50;99.90;;;;;;5003397;28;20033;-68
2022/07/30 05:02:19;;;;;;;13.00;11.63;;;16.40;99.90;;;;;;5000780;28;20727;-68
2022/07/30 05:04:46;;;;;;;18.52;11.82;;;16.50;99.90;;;;;;5001859;28;20057;-68
2022/07/30 05:07:16;;;;;;;13.05;10.32;;;16.60;99.90;;;;;;5006527;28;20025;-69
2022/07/30 05:09:42;;;;;;;23.08;12.25;;;16.50;99.90;;;;;;5000523;28;20065;-69
2022/07/30 05:12:08;;;;;;;12.00;10.65;;;16.50;99.90;;;;;;4997341;28;20062;-69
2022/07/30 05:14:34;;;;;;;12.23;10.57;;;16.40;99.90;;;;;;4976941;28;20065;-68
2022/07/30 05:16:59;;;;;;;17.35;10.52;;;16.40;99.90;;;;;;4995522;28;20049;-68
2022/07/30 05:19:25;;;;;;;11.32;8.77;;;16.20;99.90;;;;;;5000556;28;20029;-69
2022/07/30 05:21:51;;;;;;;11.48;10.35;;;16.50;99.90;;;;;;5002275;28;20026;-69
2022/07/30 05:24:16;;;;;;;11.05;9.98;;;16.20;99.90;;;;;;5001762;28;20128;-68
2022/07/30 05:26:42;;;;;;;11.40;9.75;;;17.30;99.90;;;;;;5007427;28;20056;-68
2022/07/30 05:29:07;;;;;;;11.02;9.95;;;16.50;99.90;;;;;;4999077;28;20037;-69
2022/07/30 05:31:33;;;;;;;14.02;10.30;;;16.50;99.90;;;;;;5003066;28;20030;-68
2022/07/30 05:33:59;;;;;;;12.25;10.57;;;16.50;99.90;;;;;;4987473;28;20026;-69
2022/07/30 05:36:24;;;;;;;11.82;10.32;;;16.50;99.90;;;;;;4993627;28;20367;-69
2022/07/30 05:38:50;;;;;;;12.35;10.30;;;16.60;99.90;;;;;;4990426;28;20391;-69
2022/07/30 05:41:16;;;;;;;14.82;9.50;;;18.10;99.90;;;;;;4992662;28;20503;-69
2022/07/30 05:43:42;;;;;;;13.63;9.38;;;16.60;99.90;;;;;;4990355;28;20113;-69
2022/07/30 05:46:07;;;;;;;11.98;9.57;;;16.70;99.90;;;;;;4992365;28;20038;-70
2022/07/30 05:48:34;;;;;;;11.82;10.15;;;16.70;99.90;;;;;;4991838;28;20514;-68
2022/07/30 05:51:04;;;;;;;11.48;9.45;;;16.70;99.90;;;;;;4992087;28;20045;-69
2022/07/30 05:53:30;;;;;;;11.20;9.23;;;16.80;99.90;;;;;;4992429;28;20117;-69
2022/07/30 05:55:56;;;;;;;11.27;10.18;;;16.60;99.90;;;;;;4990750;28;20139;-69
2022/07/30 05:58:22;;;;;;;10.48;9.00;;;16.80;99.90;;;;;;4993486;28;20026;-69
2022/07/30 06:00:47;;;;;;;11.40;8.80;;;17.00;99.90;;;;;;4992045;28;20073;-69
2022/07/30 06:03:13;;;;;;;10.40;9.38;;;16.90;99.90;;;;;;4995301;28;20060;-68
2022/07/30 06:05:38;;;;;;;13.02;9.88;;;16.90;99.90;;;;;;4997429;28;20493;-68
2022/07/30 06:08:04;;;;;;;10.35;9.38;;;16.90;99.90;;;;;;5001410;28;20514;-68
2022/07/30 06:10:30;;;;;;;12.77;9.55;;;17.00;99.90;;;;;;5000875;28;20057;-68
2022/07/30 06:12:55;;;;;;;12.65;9.63;;;17.00;99.90;;;;;;4997684;28;20026;-68
2022/07/30 06:15:21;;;;;;;10.30;7.75;;;17.10;99.90;;;;;;5001041;28;20101;-68
2022/07/30 06:17:47;;;;;;;10.77;9.68;;;17.10;99.90;;;;;;5004999;28;20489;-68
2022/07/30 06:20:15;;;;;;;13.88;9.45;;;17.10;99.90;;;;;;5005609;28;20026;-68
2022/07/30 06:22:41;;;;;;;12.68;10.18;;;18.10;99.90;;;;;;5002518;28;20057;-68
2022/07/30 06:25:08;;;;;;;9.48;8.25;;;17.10;99.90;;;;;;4996192;28;20161;-69
2022/07/30 06:27:35;;;;;;;10.45;9.02;;;17.30;99.90;;;;;;4989075;28;20046;-69
2022/07/30 06:30:01;;;;;;;12.18;8.10;;;17.20;99.90;;;;;;4971642;28;20109;-69
2022/07/30 06:32:27;;;;;;;15.15;9.65;;;17.30;99.90;;;;;;4971553;28;20022;-69
2022/07/30 06:34:52;;;;;;;10.73;8.25;;;17.50;99.90;;;;;;4996754;28;20510;-68
2022/07/30 06:37:18;;;;;;;10.45;9.27;;;17.40;99.90;;;;;;5005968;28;20105;-69
2022/07/30 06:39:43;;;;;;;9.80;8.88;;;17.40;99.90;;;;;;4993747;28;20046;-69
2022/07/30 06:42:09;;;;;;;11.75;9.50;;;17.50;99.90;;;;;;4995539;28;20034;-69
2022/07/30 06:44:34;;;;;;;11.82;9.60;;;18.20;99.90;;;;;;4996998;28;20041;-69
2022/07/30 06:47:00;;;;;;;13.85;7.88;;;17.60;99.90;;;;;;5000503;28;20042;-71
2022/07/30 06:49:25;;;;;;;13.48;8.70;;;17.80;99.90;;;;;;4999385;28;20046;-69
2022/07/30 06:51:51;;;;;;;13.15;7.55;;;17.90;99.90;;;;;;4982514;28;20034;-70
2022/07/30 06:54:17;;;;;;;9.30;6.88;;;18.00;99.90;;;;;;4993605;28;20026;-70
2022/07/30 06:56:43;;;;;;;9.45;8.00;;;18.10;99.90;;;;;;4993795;28;20034;-70
2022/07/30 06:59:08;;;;;;;14.35;8.65;;;18.20;99.90;;;;;;4993769;28;20030;-70
2022/07/30 07:01:34;;;;;;;9.77;7.45;;;18.20;99.90;;;;;;4993259;28;20050;-68
2022/07/30 07:03:59;;;;;;;8.52;6.72;;;18.20;99.90;;;;;;4993385;28;20140;-68
2022/07/30 07:06:25;;;;;;;9.13;7.45;;;18.30;99.90;;;;;;4993198;28;20026;-67
2022/07/30 07:08:50;;;;;;;10.63;6.35;;;18.40;99.90;;;;;;4999392;28;20053;-67
2022/07/30 07:11:16;;;;;;;7.63;5.55;;;18.50;99.90;;;;;;5003672;28;20053;-67
2022/07/30 07:13:42;;;;;;;7.25;5.07;;;18.60;99.90;;;;;;5007878;28;20041;-67
2022/07/30 07:16:07;;;;;;;8.75;4.53;;;18.70;99.90;;;;;;4993725;28;20037;-68
2022/07/30 07:18:33;;;;;;;8.63;5.30;;;18.70;99.90;;;;;;4992235;28;20034;-67
2022/07/30 07:20:58;;;;;;;10.70;5.13;;;18.80;99.90;;;;;;4993452;28;20026;-68
2022/07/30 07:23:24;;;;;;;6.13;4.20;;;18.90;99.90;;;;;;5003083;28;20077;-67
2022/07/30 07:25:49;;;;;;;7.53;4.65;;;20.50;99.90;;;;;;4992850;28;20514;-67
2022/07/30 07:28:15;;;;;;;10.30;4.65;;;19.10;99.90;;;;;;4992885;28;20042;-67
2022/07/30 07:30:42;;;;;;;9.98;5.30;;;19.10;99.90;;;;;;5001859;28;20045;-68
2022/07/30 07:33:07;;;;;;;7.03;4.63;;;19.20;99.90;;;;;;4999833;28;20034;-67
2022/07/30 07:35:33;;;;;;;8.75;4.35;;;19.90;99.90;;;;;;4998350;28;20033;-67
2022/07/30 07:37:58;;;;;;;7.50;4.93;;;19.10;99.90;;;;;;4992898;28;20030;-67
2022/07/30 07:40:24;;;;;;;11.32;4.38;;;19.00;99.90;;;;;;5002944;28;20057;-67
2022/07/30 07:42:49;;;;;;;5.53;4.43;;;19.40;99.90;;;;;;4998246;28;20037;-70
2022/07/30 07:45:15;;;;;;;6.50;4.38;;;19.20;99.90;;;;;;4991860;28;20510;-70
2022/07/30 07:47:48;;;;;;;8.10;4.68;;;19.30;99.90;;;;;;4992387;28;20058;-70
2022/07/30 07:50:16;;;;;;;5.57;4.68;;;19.40;99.90;;;;;;5009477;28;20373;-70
2022/07/30 07:52:41;;;;;;;7.38;4.90;;;19.40;99.90;;;;;;4992134;28;20027;-69
2022/07/30 07:55:07;;;;;;;6.75;4.18;;;19.50;99.90;;;;;;5006471;28;20029;-69
2022/07/30 07:57:41;;;;;;;8.25;3.70;;;19.70;99.90;;;;;;5004256;28;20048;-70
2022/07/30 08:00:16;;;;;;;7.95;4.90;;;19.90;99.90;;;;;;4992691;28;20480;-70
2022/07/30 08:02:42;;;;;;;10.57;4.47;;;19.90;99.00;;;;;;4999726;28;20026;-69
2022/07/30 08:05:09;;;;;;;9.85;4.93;;;19.80;98.90;;;;;;4992712;28;20038;-70
2022/07/30 08:07:35;;;;;;;6.45;3.53;;;19.80;98.70;;;;;;4992556;28;20114;-70
2022/07/30 08:10:01;;;;;;;5.05;3.70;;;19.80;98.60;;;;;;4992708;28;20077;-69
2022/07/30 08:12:27;;;;;;;8.20;3.95;;;20.00;98.40;;;;;;4992550;28;20023;-70
2022/07/30 08:14:52;;;;;;;8.18;3.47;;;20.20;98.30;;;;;;4991767;28;20057;-70
2022/07/30 08:17:18;;;;;;;8.75;4.03;;;20.20;98.30;;;;;;4992451;28;20025;-69
2022/07/30 08:19:44;;;;;;;6.53;3.75;;;20.40;97.80;;;;;;5004805;28;20475;-70
2022/07/30 08:22:10;;;;;;;5.55;3.83;;;20.40;97.60;;;;;;4993186;28;20033;-70
2022/07/30 08:24:35;;;;;;;5.57;4.30;;;20.20;97.50;;;;;;5002683;28;20391;-70
2022/07/30 08:27:01;;;;;;;6.32;3.22;;;20.40;97.30;;;;;;5011665;28;20499;-70
2022/07/30 08:29:26;;;;;;;7.40;3.08;;;20.30;96.90;;;;;;5002384;28;20023;-70
2022/07/30 08:31:52;;;;;;;4.25;2.97;;;20.20;96.80;;;;;;4997493;28;20030;-71
2022/07/30 08:34:19;;;;;;;7.03;3.30;;;20.30;96.80;;;;;;5008291;28;20018;-69
2022/07/30 08:36:44;;;;;;;4.75;3.47;;;20.30;96.70;;;;;;5011635;28;20029;-70
2022/07/30 08:39:10;;;;;;;5.53;3.20;;;20.70;96.70;;;;;;4997718;28;20375;-69
2022/07/30 08:41:36;;;;;;;9.80;3.75;;;20.50;96.60;;;;;;4993009;28;20478;-70
2022/07/30 08:44:02;;;;;;;8.02;3.90;;;20.70;96.20;;;;;;4999868;28;20022;-69
2022/07/30 08:46:30;;;;;;;6.15;3.65;;;20.60;95.90;;;;;;5010213;28;20046;-69
2022/07/30 08:48:57;;;;;;;4.30;3.08;;;20.60;96.10;;;;;;5000726;28;20033;-69
2022/07/30 08:51:23;;;;;;;6.88;3.30;;;20.60;95.80;;;;;;5008532;28;20144;-69
2022/07/30 08:53:49;;;;;;;6.22;2.83;;;20.90;95.80;;;;;;5011546;28;20425;-70
2022/07/30 08:56:15;;;;;;;6.40;3.42;;;20.60;95.40;;;;;;4993555;28;20487;-70
2022/07/30 08:58:41;;;;;;;3.35;2.78;;;20.50;95.20;;;;;;5000517;28;20026;-69
2022/07/30 09:01:07;;;;;;;6.78;3.03;;;20.50;95.00;;;;;;5001899;28;20498;-69
2022/07/30 09:03:33;;;;;;;7.15;2.60;;;20.60;94.90;;;;;;5010934;28;20062;-70
2022/07/30 09:06:03;;;;;;;4.15;2.30;;;20.60;94.70;;;;;;5010922;28;20094;-69
2022/07/30 09:08:28;;;;;;;7.45;3.50;;;20.70;95.00;;;;;;4997884;28;20029;-69
2022/07/30 09:10:54;;;;;;;7.93;3.83;;;20.80;94.90;;;;;;5011279;28;20029;-70
2022/07/30 09:13:27;;;;;;;4.68;3.67;;;20.90;94.60;;;;;;4996357;28;20058;-70
2022/07/30 09:15:54;;;;;;;5.65;2.10;;;20.90;95.00;;;;;;5011159;28;20040;-70
2022/07/30 09:18:39;;;;;;;4.25;1.77;;;21.00;94.70;;;;;;5007084;28;20026;-70
2022/07/30 09:21:24;;;;;;;6.57;2.63;;;20.80;99.80;;;;;;5155681;27;20469;-70
2022/07/30 09:24:02;;;;;;;2.92;1.92;;;21.00;93.40;;;;;;5135487;27;20080;-70
2022/07/30 09:26:28;;;;;;;4.90;2.13;;;21.10;93.30;;;;;;5148757;27;20514;-70
2022/07/30 09:28:54;;;;;;;2.75;2.38;;;21.10;94.00;;;;;;5148627;27;20023;-70
2022/07/30 09:31:22;;;;;;;5.95;2.65;;;21.30;94.00;;;;;;5148639;27;20524;-70
2022/07/30 09:33:48;;;;;;;3.47;2.55;;;21.20;94.30;;;;;;5148536;27;20027;-70
2022/07/30 09:36:17;;;;;;;4.93;2.38;;;21.30;93.90;;;;;;5148183;27;20099;-70
2022/07/30 09:38:44;;;;;;;5.97;2.13;;;21.40;94.00;;;;;;5147615;27;20031;-70
2022/07/30 09:41:10;;;;;;;4.10;1.95;;;21.50;93.50;;;;;;5147797;27;20069;-70
2022/07/30 09:43:47;;;;;;;5.07;1.88;;;21.40;93.60;;;;;;5147931;27;20015;-70
2022/07/30 09:46:14;;;;;;;6.07;2.40;;;21.60;93.80;;;;;;5148024;27;20042;-70
2022/07/30 09:48:40;;;;;;;5.50;2.30;;;21.60;93.40;;;;;;5147334;27;20033;-71
2022/07/30 09:51:06;;;;;;;5.00;2.58;;;21.60;92.90;;;;;;5148434;27;20030;-70
2022/07/30 09:53:32;;;;;;;5.40;2.38;;;21.60;92.70;;;;;;5147944;27;20011;-69
2022/07/30 09:55:58;;;;;;;5.35;2.40;;;21.50;92.70;;;;;;5147267;27;20030;-70
2022/07/30 09:58:38;;;;;;;3.42;2.28;;;21.70;92.70;;;;;;5147437;27;20031;-70
2022/07/30 10:01:03;;;;;;;4.03;2.05;;;21.70;92.80;;;;;;5148287;27;20089;-70
2022/07/30 10:03:29;;;;;;;3.63;2.30;;;21.70;92.40;;;;;;5147499;27;20023;-69
2022/07/30 10:05:57;;;;;;;5.18;2.15;;;21.70;92.20;;;;;;5146795;27;20034;-68
2022/07/30 10:08:43;;;;;;;4.65;3.15;;;21.80;92.40;;;;;;5136516;27;20479;-69
2022/07/30 10:11:13;;;;;;;2.88;2.30;;;21.80;92.60;;;;;;5147302;27;20027;-69
2022/07/30 10:13:39;;;;;;;4.68;1.90;;;21.90;92.00;;;;;;5145884;27;20015;-68
2022/07/30 10:16:06;;;;;;;5.45;1.58;;;21.90;91.60;;;;;;5147866;27;20019;-68
2022/07/30 10:18:31;;;;;;;5.28;2.10;;;23.00;91.60;;;;;;5147166;27;20023;-68
2022/07/30 10:20:59;;;;;;;4.53;2.28;;;22.00;91.10;;;;;;5147318;27;20047;-68
2022/07/30 10:23:28;;;;;;;3.08;2.05;;;21.80;91.00;;;;;;5147337;27;20410;-68
2022/07/30 10:26:01;;;;;;;3.33;1.63;;;22.10;90.50;;;;;;5136663;27;20027;-68
2022/07/30 10:28:28;;;;;;;5.10;2.03;;;22.00;89.20;;;;;;5146025;27;20483;-68
2022/07/30 10:30:56;;;;;;;3.95;2.13;;;22.00;90.10;;;;;;5139104;27;20019;-69
2022/07/30 10:33:25;;;;;;;3.72;2.10;;;22.10;90.10;;;;;;5121728;27;20015;-68
2022/07/30 10:35:51;;;;;;;5.93;2.58;;;22.00;90.00;;;;;;5132996;27;20463;-68
2022/07/30 10:38:20;;;;;;;3.20;1.50;;;22.10;89.00;;;;;;5132553;27;20034;-69
2022/07/30 10:41:16;;;;;;;4.30;1.58;;;22.90;89.20;;;;;;5132555;27;20087;-70
2022/07/30 10:44:13;;;;;;;4.53;2.08;;;22.20;87.50;;;;;;5123300;27;20468;-70
2022/07/30 10:46:51;;;;;;;3.50;2.20;;;22.30;86.90;;;;;;5119478;27;20024;-68
2022/07/30 10:49:17;;;;;;;2.35;1.42;;;22.40;86.50;;;;;;5132717;27;20030;-69
2022/07/30 10:51:48;;;;;;;7.22;1.90;;;22.40;87.60;;;;;;5131488;27;20788;-69
2022/07/30 10:54:32;;;;;;;4.13;1.90;;;22.60;85.70;;;;;;5131390;27;20494;-69
2022/07/30 10:57:12;;;;;;;3.85;2.33;;;22.60;88.10;;;;;;5124211;27;20039;-69
2022/07/30 10:59:57;;;;;;;4.32;2.10;;;22.50;86.30;;;;;;5116590;27;20040;-68
2022/07/30 11:02:24;;;;;;;5.57;2.08;;;22.40;86.60;;;;;;5114907;27;20016;-66
2022/07/30 11:05:16;;;;;;;2.90;2.35;;;22.50;88.40;;;;;;5112788;27;20020;-67
2022/07/30 11:07:42;;;;;;;4.18;2.25;;;22.60;88.30;;;;;;5111724;27;20069;-67
2022/07/30 11:10:36;;;;;;;5.30;3.25;;;22.60;89.00;;;;;;5116271;27;20027;-66
2022/07/30 11:13:02;;;;;;;5.15;2.10;;;22.70;87.80;;;;;;5113977;27;20024;-66
2022/07/30 11:15:51;;;;;;;4.20;2.03;;;23.30;88.90;;;;;;5114548;27;20519;-67
2022/07/30 11:18:17;;;;;;;5.50;2.38;;;22.80;87.50;;;;;;5114706;27;20034;-67
2022/07/30 11:21:13;;;;;;;3.95;1.85;;;22.90;88.30;;;;;;5111896;27;20058;-67
2022/07/30 11:23:39;;;;;;;4.43;2.80;;;23.10;87.30;;;;;;5126297;27;20058;-67
2022/07/30 11:26:04;;;;;;;7.05;2.40;;;23.00;87.40;;;;;;5132799;27;20058;-67
2022/07/30 11:28:37;;;;;;;4.35;2.17;;;23.20;87.20;;;;;;5131687;27;20038;-67
2022/07/30 11:31:23;;;;;;;4.65;2.42;;;23.20;86.20;;;;;;5132190;27;20070;-67
2022/07/30 11:33:48;;;;;;;5.35;2.70;;;23.30;87.50;;;;;;5132416;27;20027;-68
2022/07/30 11:36:14;;;;;;;5.22;2.35;;;23.40;87.40;;;;;;5132252;27;20486;-67
2022/07/30 11:38:57;;;;;;;5.47;2.47;;;23.60;87.70;;;;;;5129342;27;20032;-68
2022/07/30 11:41:24;;;;;;;3.70;2.75;;;24.90;89.00;;;;;;5130991;27;20031;-67
2022/07/30 11:44:28;;;;;;;4.55;2.92;;;23.90;87.30;;;;;;5116413;27;20051;-67
2022/07/30 11:46:54;;;;;;;5.80;3.15;;;24.00;85.90;;;;;;5126571;27;20106;-67
2022/07/30 11:49:20;;;;;;;4.97;2.80;;;24.10;86.10;;;;;;5130735;27;20165;-68
2022/07/30 11:51:48;;;;;;;4.80;3.13;;;25.10;86.10;;;;;;5129466;27;20024;-67
2022/07/30 11:54:14;;;;;;;5.82;2.65;;;24.20;85.70;;;;;;5112143;27;20031;-68
2022/07/30 11:56:53;;;;;;;4.05;2.08;;;24.20;85.50;;;;;;5131632;27;20064;-68
2022/07/30 11:59:19;;;;;;;3.30;2.53;;;24.10;85.90;;;;;;5131735;27;20504;-67
2022/07/30 12:01:55;;;;;;;3.50;2.35;;;24.40;85.40;;;;;;5131776;27;20026;-67
2022/07/30 12:04:21;;;;;;;6.10;2.25;;;24.40;83.60;;;;;;5130797;27;20026;-68
2022/07/30 12:06:47;;;;;;;6.03;2.33;;;24.60;84.20;;;;;;5131314;27;20031;-67
2022/07/30 12:09:27;;;;;;;2.67;2.38;;;24.50;83.60;;;;;;5130793;27;20353;-67
2022/07/30 12:11:53;;;;;;;6.57;2.05;;;24.40;84.30;;;;;;5128745;27;20038;-67
2022/07/30 12:14:18;;;;;;;2.67;1.92;;;24.50;83.60;;;;;;5126949;27;20031;-67
2022/07/30 12:16:52;;;;;;;5.00;1.67;;;24.40;83.00;;;;;;5118162;27;20449;-66
2022/07/30 12:19:18;;;;;;;3.22;1.88;;;24.50;84.00;;;;;;5130156;27;20040;-67
2022/07/30 12:21:43;;;;;;;3.72;1.58;;;24.60;83.40;;;;;;5127766;27;20537;-67
2022/07/30 12:24:10;;;;;;;2.72;1.30;;;24.60;81.70;;;;;;5131328;27;20055;-67
2022/07/30 12:26:36;;;;;;;4.88;1.70;;;24.60;80.90;;;;;;5130309;27;20467;-66
2022/07/30 12:29:05;;;;;;;4.50;1.15;;;24.90;80.80;;;;;;5131468;27;20098;-67
2022/07/30 12:31:32;;;;;;;1.80;1.20;;;26.20;81.70;;;;;;5130791;27;20527;-67
2022/07/30 12:33:59;;;;;;;2.00;1.10;;;25.00;79.90;;;;;;5118478;27;20499;-67
2022/07/30 12:36:33;;;;;;;4.57;1.27;;;25.10;78.90;;;;;;5111921;27;20031;-66
2022/07/30 12:39:00;;;;;;;2.67;1.13;;;25.20;77.80;;;;;;5131299;27;20099;-67
2022/07/30 12:41:55;;;;;;;2.30;1.55;;;25.30;78.80;;;;;;5130590;27;20495;-67
2022/07/30 12:44:40;;;;;;;3.63;1.33;;;25.40;79.00;;;;;;5108490;27;20091;-67
2022/07/30 12:47:18;;;;;;;4.75;1.60;;;25.60;76.80;;;;;;5131217;27;20037;-67
2022/07/30 12:49:43;;;;;;;3.28;1.20;;;25.50;78.40;;;;;;5112412;27;20378;-67